sensor_id;sensor_type;location;lat;lon;timestamp;P1;durP1;ratioP1;P2;durP2;ratioP2
48588;SDS011;34369;51.174;6.738;2023-03-09T00:00:44;56.07;;;51.77;;
48588;SDS011;34369;51.174;6.738;2023-03-09T00:03:16;55.33;;;51.00;;
48588;SDS011;34369;51.174;6.738;2023-03-09T00:05:52;56.67;;;52.33;;
48588;SDS011;34369;51.174;6.738;2023-03-09T00:08:28;57.00;;;52.70;;
48588;SDS011;34369;51.174;6.738;2023-03-09T00:11:05;56.20;;;51.90;;
48588;SDS011;34369;51.174;6.738;2023-03-09T00:13:38;55.63;;;51.33;;
48588;SDS011;34369;51.174;6.738;2023-03-09T00:16:11;53.10;;;49.00;;
48588;SDS011;34369;51.174;6.738;2023-03-09T00:18:47;53.03;;;49.10;;
48588;SDS011;34369;51.174;6.738;2023-03-09T00:21:21;54.00;;;49.80;;
48588;SDS011;34369;51.174;6.738;2023-03-09T00:24:15;53.27;;;49.20;;
48588;SDS011;34369;51.174;6.738;2023-03-09T00:26:52;51.83;;;47.85;;
48588;SDS011;34369;51.174;6.738;2023-03-09T00:29:28;54.15;;;50.03;;
48588;SDS011;34369;51.174;6.738;2023-03-09T00:32:01;55.20;;;50.90;;
48588;SDS011;34369;51.174;6.738;2023-03-09T00:34:34;54.70;;;50.57;;
48588;SDS011;34369;51.174;6.738;2023-03-09T00:37:06;53.10;;;49.17;;
48588;SDS011;34369;51.174;6.738;2023-03-09T00:39:40;52.90;;;49.00;;
48588;SDS011;34369;51.174;6.738;2023-03-09T00:42:14;54.33;;;50.13;;
48588;SDS011;34369;51.174;6.738;2023-03-09T00:44:46;52.33;;;48.27;;
48588;SDS011;34369;51.174;6.738;2023-03-09T00:47:18;54.47;;;50.37;;
48588;SDS011;34369;51.174;6.738;2023-03-09T00:49:51;54.03;;;50.03;;
48588;SDS011;34369;51.174;6.738;2023-03-09T00:52:23;51.97;;;48.10;;
48588;SDS011;34369;51.174;6.738;2023-03-09T00:54:56;54.80;;;50.70;;
48588;SDS011;34369;51.174;6.738;2023-03-09T00:57:30;56.17;;;51.97;;
48588;SDS011;34369;51.174;6.738;2023-03-09T01:00:03;56.93;;;52.73;;
48588;SDS011;34369;51.174;6.738;2023-03-09T01:02:37;52.37;;;48.47;;
48588;SDS011;34369;51.174;6.738;2023-03-09T01:05:10;50.90;;;47.10;;
48588;SDS011;34369;51.174;6.738;2023-03-09T01:07:42;52.40;;;48.50;;
48588;SDS011;34369;51.174;6.738;2023-03-09T01:10:15;54.60;;;50.67;;
48588;SDS011;34369;51.174;6.738;2023-03-09T01:12:51;54.77;;;50.77;;
48588;SDS011;34369;51.174;6.738;2023-03-09T01:15:25;50.67;;;46.87;;
48588;SDS011;34369;51.174;6.738;2023-03-09T01:17:57;55.13;;;51.20;;
48588;SDS011;34369;51.174;6.738;2023-03-09T01:20:30;52.87;;;48.97;;
48588;SDS011;34369;51.174;6.738;2023-03-09T01:23:04;50.83;;;47.03;;
48588;SDS011;34369;51.174;6.738;2023-03-09T01:25:37;53.47;;;49.43;;
48588;SDS011;34369;51.174;6.738;2023-03-09T01:28:11;55.03;;;50.93;;
48588;SDS011;34369;51.174;6.738;2023-03-09T01:30:43;54.60;;;50.53;;
48588;SDS011;34369;51.174;6.738;2023-03-09T01:33:15;54.37;;;50.37;;
48588;SDS011;34369;51.174;6.738;2023-03-09T01:35:48;53.97;;;49.97;;
48588;SDS011;34369;51.174;6.738;2023-03-09T01:38:20;52.33;;;48.53;;
48588;SDS011;34369;51.174;6.738;2023-03-09T01:40:52;52.43;;;48.73;;
48588;SDS011;34369;51.174;6.738;2023-03-09T01:43:29;52.53;;;48.73;;
48588;SDS011;34369;51.174;6.738;2023-03-09T01:46:23;53.50;;;49.77;;
48588;SDS011;34369;51.174;6.738;2023-03-09T01:49:13;53.90;;;50.10;;
48588;SDS011;34369;51.174;6.738;2023-03-09T01:52:05;53.00;;;49.37;;
48588;SDS011;34369;51.174;6.738;2023-03-09T01:54:45;51.47;;;47.93;;
48588;SDS011;34369;51.174;6.738;2023-03-09T01:57:23;49.93;;;46.43;;
48588;SDS011;34369;51.174;6.738;2023-03-09T02:00:01;51.33;;;47.80;;
48588;SDS011;34369;51.174;6.738;2023-03-09T02:02:40;50.27;;;46.87;;
48588;SDS011;34369;51.174;6.738;2023-03-09T02:05:16;49.35;;;45.95;;
48588;SDS011;34369;51.174;6.738;2023-03-09T02:07:53;49.53;;;46.17;;
48588;SDS011;34369;51.174;6.738;2023-03-09T02:10:27;52.07;;;48.47;;
48588;SDS011;34369;51.174;6.738;2023-03-09T02:13:03;50.92;;;47.45;;
48588;SDS011;34369;51.174;6.738;2023-03-09T02:15:41;49.40;;;46.10;;
48588;SDS011;34369;51.174;6.738;2023-03-09T02:18:13;49.70;;;46.40;;
48588;SDS011;34369;51.174;6.738;2023-03-09T02:20:47;47.73;;;44.43;;
48588;SDS011;34369;51.174;6.738;2023-03-09T02:23:32;50.73;;;47.23;;
48588;SDS011;34369;51.174;6.738;2023-03-09T02:26:11;49.60;;;46.13;;
48588;SDS011;34369;51.174;6.738;2023-03-09T02:28:53;49.60;;;46.13;;
48588;SDS011;34369;51.174;6.738;2023-03-09T02:31:25;49.73;;;46.23;;
48588;SDS011;34369;51.174;6.738;2023-03-09T02:33:58;51.17;;;47.57;;
48588;SDS011;34369;51.174;6.738;2023-03-09T02:36:31;54.57;;;50.77;;
48588;SDS011;34369;51.174;6.738;2023-03-09T02:39:10;52.87;;;49.17;;
48588;SDS011;34369;51.174;6.738;2023-03-09T02:41:50;49.80;;;46.30;;
48588;SDS011;34369;51.174;6.738;2023-03-09T02:44:26;51.77;;;48.13;;
48588;SDS011;34369;51.174;6.738;2023-03-09T02:46:59;52.23;;;48.63;;
48588;SDS011;34369;51.174;6.738;2023-03-09T02:49:31;50.37;;;46.83;;
48588;SDS011;34369;51.174;6.738;2023-03-09T02:52:04;53.97;;;50.17;;
48588;SDS011;34369;51.174;6.738;2023-03-09T02:54:36;50.37;;;46.87;;
48588;SDS011;34369;51.174;6.738;2023-03-09T02:57:08;51.87;;;48.17;;
48588;SDS011;34369;51.174;6.738;2023-03-09T02:59:42;51.50;;;47.70;;
48588;SDS011;34369;51.174;6.738;2023-03-09T03:02:13;49.90;;;46.30;;
48588;SDS011;34369;51.174;6.738;2023-03-09T03:04:46;52.30;;;48.53;;
48588;SDS011;34369;51.174;6.738;2023-03-09T03:07:18;51.10;;;47.50;;
48588;SDS011;34369;51.174;6.738;2023-03-09T03:09:50;49.30;;;45.70;;
48588;SDS011;34369;51.174;6.738;2023-03-09T03:12:22;49.27;;;45.67;;
48588;SDS011;34369;51.174;6.738;2023-03-09T03:14:55;48.70;;;45.00;;
48588;SDS011;34369;51.174;6.738;2023-03-09T03:17:27;51.37;;;47.67;;
48588;SDS011;34369;51.174;6.738;2023-03-09T03:19:59;52.33;;;48.53;;
48588;SDS011;34369;51.174;6.738;2023-03-09T03:22:31;52.37;;;48.63;;
48588;SDS011;34369;51.174;6.738;2023-03-09T03:25:03;49.93;;;46.23;;
48588;SDS011;34369;51.174;6.738;2023-03-09T03:27:36;51.63;;;47.93;;
48588;SDS011;34369;51.174;6.738;2023-03-09T03:30:11;52.03;;;48.33;;
48588;SDS011;34369;51.174;6.738;2023-03-09T03:32:44;51.20;;;47.50;;
48588;SDS011;34369;51.174;6.738;2023-03-09T03:35:21;53.20;;;49.40;;
48588;SDS011;34369;51.174;6.738;2023-03-09T03:37:54;51.73;;;47.90;;
48588;SDS011;34369;51.174;6.738;2023-03-09T03:40:26;51.97;;;48.07;;
48588;SDS011;34369;51.174;6.738;2023-03-09T03:42:58;55.47;;;51.37;;
48588;SDS011;34369;51.174;6.738;2023-03-09T03:45:31;53.80;;;49.80;;
48588;SDS011;34369;51.174;6.738;2023-03-09T03:48:03;54.83;;;50.83;;
48588;SDS011;34369;51.174;6.738;2023-03-09T03:50:36;56.40;;;52.20;;
48588;SDS011;34369;51.174;6.738;2023-03-09T03:53:09;55.57;;;51.30;;
48588;SDS011;34369;51.174;6.738;2023-03-09T03:55:41;54.10;;;49.90;;
48588;SDS011;34369;51.174;6.738;2023-03-09T03:58:13;54.73;;;50.43;;
48588;SDS011;34369;51.174;6.738;2023-03-09T04:00:46;55.67;;;51.40;;
48588;SDS011;34369;51.174;6.738;2023-03-09T04:03:19;56.00;;;51.50;;
48588;SDS011;34369;51.174;6.738;2023-03-09T04:05:51;58.40;;;53.57;;
48588;SDS011;34369;51.174;6.738;2023-03-09T04:08:23;58.90;;;54.27;;
48588;SDS011;34369;51.174;6.738;2023-03-09T04:10:55;57.67;;;52.90;;
48588;SDS011;34369;51.174;6.738;2023-03-09T04:13:28;60.50;;;55.67;;
48588;SDS011;34369;51.174;6.738;2023-03-09T04:16:01;58.73;;;53.87;;
48588;SDS011;34369;51.174;6.738;2023-03-09T04:18:33;56.70;;;51.73;;
48588;SDS011;34369;51.174;6.738;2023-03-09T04:21:05;59.00;;;53.93;;
48588;SDS011;34369;51.174;6.738;2023-03-09T04:23:37;57.63;;;52.73;;
48588;SDS011;34369;51.174;6.738;2023-03-09T04:26:11;59.87;;;54.80;;
48588;SDS011;34369;51.174;6.738;2023-03-09T04:28:43;59.53;;;54.53;;
48588;SDS011;34369;51.174;6.738;2023-03-09T04:31:16;59.73;;;54.47;;
48588;SDS011;34369;51.174;6.738;2023-03-09T04:33:48;59.70;;;54.67;;
48588;SDS011;34369;51.174;6.738;2023-03-09T04:36:20;61.90;;;56.70;;
48588;SDS011;34369;51.174;6.738;2023-03-09T04:38:52;57.80;;;52.80;;
48588;SDS011;34369;51.174;6.738;2023-03-09T04:41:31;58.73;;;53.67;;
48588;SDS011;34369;51.174;6.738;2023-03-09T04:44:03;57.30;;;52.40;;
48588;SDS011;34369;51.174;6.738;2023-03-09T04:46:37;57.80;;;52.70;;
48588;SDS011;34369;51.174;6.738;2023-03-09T04:49:09;59.27;;;54.27;;
48588;SDS011;34369;51.174;6.738;2023-03-09T04:51:44;58.83;;;53.63;;
48588;SDS011;34369;51.174;6.738;2023-03-09T04:54:16;59.87;;;54.77;;
48588;SDS011;34369;51.174;6.738;2023-03-09T04:56:48;58.73;;;53.60;;
48588;SDS011;34369;51.174;6.738;2023-03-09T04:59:20;61.53;;;56.13;;
48588;SDS011;34369;51.174;6.738;2023-03-09T05:01:54;60.00;;;54.80;;
48588;SDS011;34369;51.174;6.738;2023-03-09T05:04:26;59.73;;;54.40;;
48588;SDS011;34369;51.174;6.738;2023-03-09T05:06:59;59.47;;;54.30;;
48588;SDS011;34369;51.174;6.738;2023-03-09T05:09:31;59.77;;;54.47;;
48588;SDS011;34369;51.174;6.738;2023-03-09T05:12:03;60.10;;;54.90;;
48588;SDS011;34369;51.174;6.738;2023-03-09T05:14:35;59.97;;;54.77;;
48588;SDS011;34369;51.174;6.738;2023-03-09T05:17:09;58.23;;;53.10;;
48588;SDS011;34369;51.174;6.738;2023-03-09T05:19:41;59.80;;;54.63;;
48588;SDS011;34369;51.174;6.738;2023-03-09T05:22:13;61.63;;;56.47;;
48588;SDS011;34369;51.174;6.738;2023-03-09T05:24:45;60.70;;;55.40;;
48588;SDS011;34369;51.174;6.738;2023-03-09T05:27:18;59.83;;;54.60;;
48588;SDS011;34369;51.174;6.738;2023-03-09T05:29:50;60.23;;;54.63;;
48588;SDS011;34369;51.174;6.738;2023-03-09T05:32:24;56.87;;;51.93;;
48588;SDS011;34369;51.174;6.738;2023-03-09T05:34:56;64.43;;;59.03;;
48588;SDS011;34369;51.174;6.738;2023-03-09T05:37:28;60.53;;;54.80;;
48588;SDS011;34369;51.174;6.738;2023-03-09T05:40:03;63.13;;;57.40;;
48588;SDS011;34369;51.174;6.738;2023-03-09T05:42:37;64.37;;;58.50;;
48588;SDS011;34369;51.174;6.738;2023-03-09T05:45:10;59.60;;;54.30;;
48588;SDS011;34369;51.174;6.738;2023-03-09T05:47:43;61.00;;;55.33;;
48588;SDS011;34369;51.174;6.738;2023-03-09T05:50:16;64.07;;;58.47;;
48588;SDS011;34369;51.174;6.738;2023-03-09T05:52:49;59.93;;;54.63;;
48588;SDS011;34369;51.174;6.738;2023-03-09T05:55:21;61.87;;;56.17;;
48588;SDS011;34369;51.174;6.738;2023-03-09T05:57:54;62.43;;;56.37;;
48588;SDS011;34369;51.174;6.738;2023-03-09T06:00:27;59.37;;;53.93;;
48588;SDS011;34369;51.174;6.738;2023-03-09T06:03:02;62.97;;;56.97;;
48588;SDS011;34369;51.174;6.738;2023-03-09T06:05:35;61.80;;;56.20;;
48588;SDS011;34369;51.174;6.738;2023-03-09T06:08:08;62.87;;;56.83;;
48588;SDS011;34369;51.174;6.738;2023-03-09T06:10:43;63.00;;;57.40;;
48588;SDS011;34369;51.174;6.738;2023-03-09T06:13:16;62.43;;;56.63;;
48588;SDS011;34369;51.174;6.738;2023-03-09T06:15:50;63.10;;;57.50;;
48588;SDS011;34369;51.174;6.738;2023-03-09T06:18:24;62.83;;;57.00;;
48588;SDS011;34369;51.174;6.738;2023-03-09T06:20:59;63.30;;;57.47;;
48588;SDS011;34369;51.174;6.738;2023-03-09T06:23:33;65.60;;;59.50;;
48588;SDS011;34369;51.174;6.738;2023-03-09T06:26:08;61.93;;;56.53;;
48588;SDS011;34369;51.174;6.738;2023-03-09T06:28:42;63.47;;;57.87;;
48588;SDS011;34369;51.174;6.738;2023-03-09T06:31:20;63.00;;;57.63;;
48588;SDS011;34369;51.174;6.738;2023-03-09T06:33:56;61.13;;;55.63;;
48588;SDS011;34369;51.174;6.738;2023-03-09T06:36:28;61.07;;;55.77;;
48588;SDS011;34369;51.174;6.738;2023-03-09T06:39:02;61.70;;;56.13;;
48588;SDS011;34369;51.174;6.738;2023-03-09T06:41:40;60.37;;;55.17;;
48588;SDS011;34369;51.174;6.738;2023-03-09T06:44:12;60.63;;;55.43;;
48588;SDS011;34369;51.174;6.738;2023-03-09T06:46:45;59.60;;;54.47;;
48588;SDS011;34369;51.174;6.738;2023-03-09T06:49:22;60.07;;;54.90;;
48588;SDS011;34369;51.174;6.738;2023-03-09T06:51:55;63.53;;;58.03;;
48588;SDS011;34369;51.174;6.738;2023-03-09T06:54:28;62.13;;;56.77;;
48588;SDS011;34369;51.174;6.738;2023-03-09T06:57:01;62.30;;;56.83;;
48588;SDS011;34369;51.174;6.738;2023-03-09T06:59:34;63.03;;;57.63;;
48588;SDS011;34369;51.174;6.738;2023-03-09T07:02:08;61.60;;;56.40;;
48588;SDS011;34369;51.174;6.738;2023-03-09T07:04:44;51.63;;;47.30;;
48588;SDS011;34369;51.174;6.738;2023-03-09T07:07:17;60.97;;;55.87;;
48588;SDS011;34369;51.174;6.738;2023-03-09T07:09:51;58.83;;;53.60;;
48588;SDS011;34369;51.174;6.738;2023-03-09T07:12:24;53.87;;;49.33;;
48588;SDS011;34369;51.174;6.738;2023-03-09T07:14:57;55.90;;;51.00;;
48588;SDS011;34369;51.174;6.738;2023-03-09T07:17:32;56.37;;;51.37;;
48588;SDS011;34369;51.174;6.738;2023-03-09T07:20:08;55.70;;;51.07;;
48588;SDS011;34369;51.174;6.738;2023-03-09T07:22:42;56.72;;;51.72;;
48588;SDS011;34369;51.174;6.738;2023-03-09T07:25:15;55.50;;;50.93;;
48588;SDS011;34369;51.174;6.738;2023-03-09T07:27:48;54.00;;;49.60;;
48588;SDS011;34369;51.174;6.738;2023-03-09T07:30:23;52.27;;;47.80;;
48588;SDS011;34369;51.174;6.738;2023-03-09T07:32:58;57.00;;;52.23;;
48588;SDS011;34369;51.174;6.738;2023-03-09T07:35:37;60.77;;;55.37;;
48588;SDS011;34369;51.174;6.738;2023-03-09T07:38:09;59.93;;;54.80;;
48588;SDS011;34369;51.174;6.738;2023-03-09T07:40:43;59.10;;;54.00;;
48588;SDS011;34369;51.174;6.738;2023-03-09T07:43:19;56.50;;;51.58;;
48588;SDS011;34369;51.174;6.738;2023-03-09T07:45:52;58.33;;;52.87;;
48588;SDS011;34369;51.174;6.738;2023-03-09T07:48:25;58.93;;;53.70;;
48588;SDS011;34369;51.174;6.738;2023-03-09T07:50:59;57.87;;;52.80;;
48588;SDS011;34369;51.174;6.738;2023-03-09T07:53:34;58.07;;;52.80;;
48588;SDS011;34369;51.174;6.738;2023-03-09T07:56:08;55.30;;;50.40;;
48588;SDS011;34369;51.174;6.738;2023-03-09T07:58:42;58.70;;;53.50;;
48588;SDS011;34369;51.174;6.738;2023-03-09T08:01:17;57.50;;;52.50;;
48588;SDS011;34369;51.174;6.738;2023-03-09T08:03:50;57.97;;;52.63;;
48588;SDS011;34369;51.174;6.738;2023-03-09T08:06:25;57.67;;;52.47;;
48588;SDS011;34369;51.174;6.738;2023-03-09T08:08:58;57.43;;;52.20;;
48588;SDS011;34369;51.174;6.738;2023-03-09T08:11:31;62.23;;;56.70;;
48588;SDS011;34369;51.174;6.738;2023-03-09T08:14:04;62.90;;;57.43;;
48588;SDS011;34369;51.174;6.738;2023-03-09T08:16:37;62.23;;;56.50;;
48588;SDS011;34369;51.174;6.738;2023-03-09T08:19:09;60.17;;;54.73;;
48588;SDS011;34369;51.174;6.738;2023-03-09T08:21:43;59.90;;;54.67;;
48588;SDS011;34369;51.174;6.738;2023-03-09T08:24:15;61.47;;;56.07;;
48588;SDS011;34369;51.174;6.738;2023-03-09T08:26:48;62.03;;;56.23;;
48588;SDS011;34369;51.174;6.738;2023-03-09T08:29:21;60.83;;;54.93;;
48588;SDS011;34369;51.174;6.738;2023-03-09T08:31:54;62.37;;;56.73;;
48588;SDS011;34369;51.174;6.738;2023-03-09T08:34:30;61.88;;;56.05;;
48588;SDS011;34369;51.174;6.738;2023-03-09T08:37:04;60.70;;;55.23;;
48588;SDS011;34369;51.174;6.738;2023-03-09T08:39:36;60.33;;;54.67;;
48588;SDS011;34369;51.174;6.738;2023-03-09T08:42:09;57.93;;;52.43;;
48588;SDS011;34369;51.174;6.738;2023-03-09T08:44:42;65.73;;;59.70;;
48588;SDS011;34369;51.174;6.738;2023-03-09T08:47:15;65.90;;;60.00;;
48588;SDS011;34369;51.174;6.738;2023-03-09T08:49:48;60.20;;;54.70;;
48588;SDS011;34369;51.174;6.738;2023-03-09T08:52:22;58.20;;;52.87;;
48588;SDS011;34369;51.174;6.738;2023-03-09T08:54:55;62.23;;;56.40;;
48588;SDS011;34369;51.174;6.738;2023-03-09T08:57:28;59.63;;;53.80;;
48588;SDS011;34369;51.174;6.738;2023-03-09T09:00:01;59.53;;;54.20;;
48588;SDS011;34369;51.174;6.738;2023-03-09T09:02:35;60.40;;;54.63;;
48588;SDS011;34369;51.174;6.738;2023-03-09T09:05:08;59.37;;;54.10;;
48588;SDS011;34369;51.174;6.738;2023-03-09T09:07:42;57.40;;;52.13;;
48588;SDS011;34369;51.174;6.738;2023-03-09T09:10:14;60.83;;;55.30;;
48588;SDS011;34369;51.174;6.738;2023-03-09T09:12:47;59.83;;;54.27;;
48588;SDS011;34369;51.174;6.738;2023-03-09T09:15:19;60.93;;;55.13;;
48588;SDS011;34369;51.174;6.738;2023-03-09T09:17:52;61.20;;;55.40;;
48588;SDS011;34369;51.174;6.738;2023-03-09T09:20:24;60.57;;;54.77;;
48588;SDS011;34369;51.174;6.738;2023-03-09T09:22:59;63.07;;;57.07;;
48588;SDS011;34369;51.174;6.738;2023-03-09T09:25:31;60.90;;;55.20;;
48588;SDS011;34369;51.174;6.738;2023-03-09T09:28:05;61.00;;;55.10;;
48588;SDS011;34369;51.174;6.738;2023-03-09T09:30:41;60.70;;;55.20;;
48588;SDS011;34369;51.174;6.738;2023-03-09T09:33:13;59.70;;;54.00;;
48588;SDS011;34369;51.174;6.738;2023-03-09T09:35:53;58.20;;;52.83;;
48588;SDS011;34369;51.174;6.738;2023-03-09T09:38:29;58.20;;;52.63;;
48588;SDS011;34369;51.174;6.738;2023-03-09T09:41:04;58.83;;;53.67;;
48588;SDS011;34369;51.174;6.738;2023-03-09T09:43:45;57.00;;;52.13;;
48588;SDS011;34369;51.174;6.738;2023-03-09T09:46:20;57.95;;;52.88;;
48588;SDS011;34369;51.174;6.738;2023-03-09T09:48:54;56.53;;;51.83;;
48588;SDS011;34369;51.174;6.738;2023-03-09T09:51:33;55.33;;;50.57;;
48588;SDS011;34369;51.174;6.738;2023-03-09T09:54:25;53.97;;;49.10;;
48588;SDS011;34369;51.174;6.738;2023-03-09T09:57:10;56.57;;;51.77;;
48588;SDS011;34369;51.174;6.738;2023-03-09T09:59:51;51.30;;;46.83;;
48588;SDS011;34369;51.174;6.738;2023-03-09T10:02:44;53.93;;;49.30;;
48588;SDS011;34369;51.174;6.738;2023-03-09T10:05:39;53.13;;;48.43;;
48588;SDS011;34369;51.174;6.738;2023-03-09T10:08:24;55.87;;;50.90;;
48588;SDS011;34369;51.174;6.738;2023-03-09T10:11:11;54.10;;;49.40;;
48588;SDS011;34369;51.174;6.738;2023-03-09T10:13:48;54.87;;;50.13;;
48588;SDS011;34369;51.174;6.738;2023-03-09T10:16:27;52.63;;;47.93;;
48588;SDS011;34369;51.174;6.738;2023-03-09T10:19:08;53.43;;;48.83;;
48588;SDS011;34369;51.174;6.738;2023-03-09T10:21:48;52.10;;;47.80;;
48588;SDS011;34369;51.174;6.738;2023-03-09T10:24:27;52.93;;;48.53;;
48588;SDS011;34369;51.174;6.738;2023-03-09T10:29:44;51.73;;;47.53;;
48588;SDS011;34369;51.174;6.738;2023-03-09T10:32:26;50.80;;;46.50;;
48588;SDS011;34369;51.174;6.738;2023-03-09T10:35:17;52.83;;;48.53;;
48588;SDS011;34369;51.174;6.738;2023-03-09T10:37:53;55.63;;;51.03;;
48588;SDS011;34369;51.174;6.738;2023-03-09T10:40:27;53.17;;;48.90;;
48588;SDS011;34369;51.174;6.738;2023-03-09T10:43:12;54.40;;;49.83;;
48588;SDS011;34369;51.174;6.738;2023-03-09T10:45:53;52.47;;;48.07;;
48588;SDS011;34369;51.174;6.738;2023-03-09T10:48:26;55.10;;;50.47;;
48588;SDS011;34369;51.174;6.738;2023-03-09T10:50:58;53.63;;;49.13;;
48588;SDS011;34369;51.174;6.738;2023-03-09T10:53:36;51.42;;;46.97;;
48588;SDS011;34369;51.174;6.738;2023-03-09T10:56:13;50.10;;;46.07;;
48588;SDS011;34369;51.174;6.738;2023-03-09T11:01:48;52.28;;;47.80;;
48588;SDS011;34369;51.174;6.738;2023-03-09T11:04:30;52.87;;;48.43;;
48588;SDS011;34369;51.174;6.738;2023-03-09T11:07:16;51.57;;;47.27;;
48588;SDS011;34369;51.174;6.738;2023-03-09T11:09:51;49.37;;;45.17;;
48588;SDS011;34369;51.174;6.738;2023-03-09T11:12:25;52.10;;;47.73;;
48588;SDS011;34369;51.174;6.738;2023-03-09T11:15:23;50.33;;;46.13;;
48588;SDS011;34369;51.174;6.738;2023-03-09T11:17:59;50.77;;;46.37;;
48588;SDS011;34369;51.174;6.738;2023-03-09T11:20:34;50.10;;;45.80;;
48588;SDS011;34369;51.174;6.738;2023-03-09T11:23:14;51.30;;;47.10;;
48588;SDS011;34369;51.174;6.738;2023-03-09T11:28:54;50.42;;;46.45;;
48588;SDS011;34369;51.174;6.738;2023-03-09T11:31:33;50.23;;;46.13;;
48588;SDS011;34369;51.174;6.738;2023-03-09T11:34:13;49.07;;;44.97;;
48588;SDS011;34369;51.174;6.738;2023-03-09T11:36:50;49.47;;;45.67;;
48588;SDS011;34369;51.174;6.738;2023-03-09T11:39:29;47.90;;;44.03;;
48588;SDS011;34369;51.174;6.738;2023-03-09T11:42:07;50.90;;;46.83;;
48588;SDS011;34369;51.174;6.738;2023-03-09T11:44:44;49.90;;;45.80;;
48588;SDS011;34369;51.174;6.738;2023-03-09T11:47:23;49.63;;;45.67;;
48588;SDS011;34369;51.174;6.738;2023-03-09T11:50:02;48.93;;;44.93;;
48588;SDS011;34369;51.174;6.738;2023-03-09T11:52:48;47.77;;;43.87;;
48588;SDS011;34369;51.174;6.738;2023-03-09T11:55:28;47.97;;;44.13;;
48588;SDS011;34369;51.174;6.738;2023-03-09T11:58:09;45.87;;;42.23;;
48588;SDS011;34369;51.174;6.738;2023-03-09T12:00:47;49.43;;;45.27;;
48588;SDS011;34369;51.174;6.738;2023-03-09T12:03:25;51.47;;;47.47;;
48588;SDS011;34369;51.174;6.738;2023-03-09T12:06:01;49.47;;;45.50;;
48588;SDS011;34369;51.174;6.738;2023-03-09T12:08:47;49.15;;;45.30;;
48588;SDS011;34369;51.174;6.738;2023-03-09T12:11:21;49.17;;;45.23;;
48588;SDS011;34369;51.174;6.738;2023-03-09T12:16:34;48.03;;;44.37;;
48588;SDS011;34369;51.174;6.738;2023-03-09T12:19:13;48.20;;;44.27;;
48588;SDS011;34369;51.174;6.738;2023-03-09T12:21:49;48.53;;;44.70;;
48588;SDS011;34369;51.174;6.738;2023-03-09T12:24:33;49.30;;;45.43;;
48588;SDS011;34369;51.174;6.738;2023-03-09T12:27:13;47.00;;;43.33;;
48588;SDS011;34369;51.174;6.738;2023-03-09T12:29:49;50.90;;;46.80;;
48588;SDS011;34369;51.174;6.738;2023-03-09T12:32:34;49.63;;;45.73;;
48588;SDS011;34369;51.174;6.738;2023-03-09T12:35:13;48.35;;;44.45;;
48588;SDS011;34369;51.174;6.738;2023-03-09T12:38:30;47.07;;;43.33;;
48588;SDS011;34369;51.174;6.738;2023-03-09T12:41:03;50.60;;;46.57;;
48588;SDS011;34369;51.174;6.738;2023-03-09T12:43:56;49.73;;;45.73;;
48588;SDS011;34369;51.174;6.738;2023-03-09T12:49:33;47.67;;;43.83;;
48588;SDS011;34369;51.174;6.738;2023-03-09T12:55:41;50.00;;;45.90;;
48588;SDS011;34369;51.174;6.738;2023-03-09T13:01:26;47.73;;;44.03;;
48588;SDS011;34369;51.174;6.738;2023-03-09T13:04:10;45.73;;;42.03;;
48588;SDS011;34369;51.174;6.738;2023-03-09T13:06:51;45.00;;;41.57;;
48588;SDS011;34369;51.174;6.738;2023-03-09T13:09:32;45.00;;;41.50;;
48588;SDS011;34369;51.174;6.738;2023-03-09T13:12:15;45.63;;;42.13;;
48588;SDS011;34369;51.174;6.738;2023-03-09T13:18:02;47.30;;;43.60;;
48588;SDS011;34369;51.174;6.738;2023-03-09T13:24:11;45.50;;;41.90;;
48588;SDS011;34369;51.174;6.738;2023-03-09T13:26:53;46.73;;;42.97;;
48588;SDS011;34369;51.174;6.738;2023-03-09T13:29:29;44.93;;;41.43;;
48588;SDS011;34369;51.174;6.738;2023-03-09T13:32:02;44.90;;;41.30;;
48588;SDS011;34369;51.174;6.738;2023-03-09T13:34:38;45.20;;;41.60;;
48588;SDS011;34369;51.174;6.738;2023-03-09T13:37:14;45.53;;;41.87;;
48588;SDS011;34369;51.174;6.738;2023-03-09T13:39:57;44.70;;;41.07;;
48588;SDS011;34369;51.174;6.738;2023-03-09T13:42:36;45.00;;;41.57;;
48588;SDS011;34369;51.174;6.738;2023-03-09T13:45:13;44.80;;;41.10;;
48588;SDS011;34369;51.174;6.738;2023-03-09T13:47:51;46.27;;;42.63;;
48588;SDS011;34369;51.174;6.738;2023-03-09T13:50:25;46.83;;;43.13;;
48588;SDS011;34369;51.174;6.738;2023-03-09T13:53:01;46.92;;;43.22;;
48588;SDS011;34369;51.174;6.738;2023-03-09T13:55:37;49.30;;;45.28;;
48588;SDS011;34369;51.174;6.738;2023-03-09T13:58:14;47.27;;;43.33;;
48588;SDS011;34369;51.174;6.738;2023-03-09T14:00:51;48.00;;;44.03;;
48588;SDS011;34369;51.174;6.738;2023-03-09T14:03:26;48.50;;;44.60;;
48588;SDS011;34369;51.174;6.738;2023-03-09T14:06:02;49.60;;;45.60;;
48588;SDS011;34369;51.174;6.738;2023-03-09T14:08:39;50.90;;;46.83;;
48588;SDS011;34369;51.174;6.738;2023-03-09T14:11:17;48.03;;;44.23;;
48588;SDS011;34369;51.174;6.738;2023-03-09T14:13:56;47.90;;;44.20;;
48588;SDS011;34369;51.174;6.738;2023-03-09T14:16:34;50.27;;;46.27;;
48588;SDS011;34369;51.174;6.738;2023-03-09T14:19:13;47.03;;;43.20;;
48588;SDS011;34369;51.174;6.738;2023-03-09T14:21:55;46.10;;;42.50;;
48588;SDS011;34369;51.174;6.738;2023-03-09T14:24:29;46.07;;;42.53;;
48588;SDS011;34369;51.174;6.738;2023-03-09T14:27:11;45.13;;;41.73;;
48588;SDS011;34369;51.174;6.738;2023-03-09T14:29:54;42.40;;;39.30;;
48588;SDS011;34369;51.174;6.738;2023-03-09T14:32:27;43.73;;;40.47;;
48588;SDS011;34369;51.174;6.738;2023-03-09T14:37:54;41.73;;;38.63;;
48588;SDS011;34369;51.174;6.738;2023-03-09T14:40:27;42.00;;;38.90;;
48588;SDS011;34369;51.174;6.738;2023-03-09T14:46:09;42.33;;;39.27;;
48588;SDS011;34369;51.174;6.738;2023-03-09T14:48:50;42.40;;;39.40;;
48588;SDS011;34369;51.174;6.738;2023-03-09T14:51:25;44.60;;;41.43;;
48588;SDS011;34369;51.174;6.738;2023-03-09T14:54:02;42.17;;;38.97;;
48588;SDS011;34369;51.174;6.738;2023-03-09T14:56:43;41.50;;;38.50;;
48588;SDS011;34369;51.174;6.738;2023-03-09T14:59:17;44.43;;;41.33;;
48588;SDS011;34369;51.174;6.738;2023-03-09T15:01:56;42.63;;;39.63;;
48588;SDS011;34369;51.174;6.738;2023-03-09T15:04:32;42.23;;;39.23;;
48588;SDS011;34369;51.174;6.738;2023-03-09T15:07:06;40.97;;;38.07;;
48588;SDS011;34369;51.174;6.738;2023-03-09T15:09:42;42.07;;;39.00;;
48588;SDS011;34369;51.174;6.738;2023-03-09T15:12:18;42.17;;;39.17;;
48588;SDS011;34369;51.174;6.738;2023-03-09T15:17:25;42.10;;;39.13;;
48588;SDS011;34369;51.174;6.738;2023-03-09T15:19:58;44.50;;;41.20;;
48588;SDS011;34369;51.174;6.738;2023-03-09T15:22:30;42.43;;;39.40;;
48588;SDS011;34369;51.174;6.738;2023-03-09T15:25:03;42.43;;;39.23;;
48588;SDS011;34369;51.174;6.738;2023-03-09T15:27:36;43.93;;;40.73;;
48588;SDS011;34369;51.174;6.738;2023-03-09T15:30:10;43.40;;;40.33;;
48588;SDS011;34369;51.174;6.738;2023-03-09T15:35:34;44.97;;;41.73;;
48588;SDS011;34369;51.174;6.738;2023-03-09T15:38:23;44.95;;;41.65;;
48588;SDS011;34369;51.174;6.738;2023-03-09T15:41:13;45.47;;;42.07;;
48588;SDS011;34369;51.174;6.738;2023-03-09T15:44:05;45.57;;;41.97;;
48588;SDS011;34369;51.174;6.738;2023-03-09T15:46:42;46.25;;;42.70;;
48588;SDS011;34369;51.174;6.738;2023-03-09T15:49:15;44.43;;;41.13;;